Have a Safe July 4th! 

Flight Track Log - Related Links

Times and Time Zones

All times are in EDT time to prevent confusion due to time zone crossing. See the EJA729 flight status page for this flight to view local times or setup timezone preferences in your user account.

Time Position Orientation Groundspeed Altitude Reporting Facility
EDT Latitude Longitude Course Direction KTS MPH feet Rate Location/Type
Wed 01:06:58 AM 25.7836 -80.2764 67° East 165 190 900  Level Miami Center
Wed 01:08:09 AM 25.8125 -80.2011 67° East 249 287 4,800 3,664 Climbing Miami Center
Wed 01:09:09 AM 25.8856 -80.1939 North 283 326 8,900 3,664 Climbing Miami Center
Wed 01:10:20 AM 25.9772 -80.2056 353° North 307 353 12,800 3,185 Climbing Miami Center
Wed 01:11:19 AM 26.0647 -80.2197 352° North 312 359 15,800 2,450 Climbing Miami Center
Wed 01:12:20 AM 26.1600 -80.2525 343° North 325 374 17,700 2,281 Climbing Miami Center
Wed 01:13:20 AM 26.2636 -80.2856 344° North 360 414 20,400 2,695 Climbing Miami Center
Wed 01:14:18 AM 26.3819 -80.3236 344° North 395 455 23,000 2,288 Climbing Miami Center
Wed 01:15:18 AM 26.4814 -80.3567 343° North 408 470 24,900 1,850 Climbing Miami Center
Wed 01:16:18 AM 26.6056 -80.3953 344° North 417 480 26,700 1,450 Climbing Miami Center
Wed 01:17:18 AM 26.7114 -80.4286 344° North 425 489 27,800 1,050 Climbing Miami Center
Wed 01:18:18 AM 26.8236 -80.4553 348° North 425 489 28,800 984 Climbing Miami Center
Wed 01:19:20 AM 26.9419 -80.4800 349° North 425 489 29,800 893 Climbing Miami Center
Wed 01:20:19 AM 27.0622 -80.5069 349° North 430 495 30,600 807 Climbing Miami Center
Wed 01:21:19 AM 27.1806 -80.5389 346° North 430 495 31,400 793 Climbing Miami Center
Wed 01:22:20 AM 27.3031 -80.5683 348° North 435 501 32,200 800 Climbing Miami Center
Wed 01:23:19 AM 27.4253 -80.5981 348° North 440 506 33,000 814 Climbing Miami Center
Wed 01:24:18 AM 27.5478 -80.6303 347° North 445 512 33,800 857 Climbing Miami Center
Wed 01:25:18 AM 27.6700 -80.6622 347° North 450 518 34,700 793 Climbing Miami Center
Wed 01:26:19 AM 27.7903 -80.6944 347° North 450 518 35,400 787 Climbing Miami Center
Wed 01:27:20 AM 27.9292 -80.7319 347° North 455 524 36,300 807 Climbing Miami Center
Wed 01:28:18 AM 28.0533 -80.7669 346° North 455 524 37,000 353 Climbing Miami Center
Wed 01:29:19 AM 28.1797 -80.8042 345° North 461 531 37,000  Level Miami Center
Wed 01:30:19 AM 28.3142 -80.8467 344° North 473 544 37,000  Level Miami Center
Wed 01:31:19 AM 28.4464 -80.8892 344° North 478 550 37,000  Level Miami Center
Wed 01:32:19 AM 28.5769 -80.9269 346° North 478 550 37,000  Level Miami Center
Wed 01:33:19 AM 28.6967 -80.9714 342° North 488 562 37,000  Level Miami Center
Wed 01:34:19 AM 28.8350 -81.0194 343° North 483 556 37,000  Level Miami Center
Wed 01:35:19 AM 28.9631 -81.0644 343° North 478 550 37,000 46 Level Miami Center
Wed 01:37:00 AM 29.1659 -81.1203 346° North  Level FlightAware Approximate
Wed 01:44:00 AM 30.0017 -81.3887 344° North  Level FlightAware Approximate
Wed 01:45:00 AM 30.1208 -81.4286 344° North  Level FlightAware Approximate
Wed 01:46:00 AM 30.2398 -81.4685 344° North  Level FlightAware Approximate
Wed 01:47:00 AM 30.3598 -81.4978 North  Level FlightAware Approximate
Wed 01:48:00 AM 30.4834 -81.4875 North  Level FlightAware Approximate
Wed 01:49:00 AM 30.6070 -81.4772 North  Level FlightAware Approximate
Wed 01:50:00 AM 30.7306 -81.4669 North  Level FlightAware Approximate
Wed 01:51:00 AM 30.8544 -81.4589 North  Level FlightAware Approximate
Wed 01:52:00 AM 30.9781 -81.4509 North  Level FlightAware Approximate
Wed 01:53:00 AM 31.1019 -81.4429 North  Level FlightAware Approximate
Wed 01:54:00 AM 31.2256 -81.4349 North  Level FlightAware Approximate
Wed 01:55:00 AM 31.3468 -81.4062 13° North  Level FlightAware Approximate
Wed 01:56:00 AM 31.4673 -81.3723 13° North  Level FlightAware Approximate
Wed 01:57:00 AM 31.5878 -81.3383 14° North  Level FlightAware Approximate
Wed 01:58:00 AM 31.7083 -81.3042 14° North  Level FlightAware Approximate
Wed 01:59:00 AM 31.8288 -81.2701 14° North  Level FlightAware Approximate
Wed 02:00:00 AM 31.9492 -81.2358 14° North  Level FlightAware Approximate
Wed 02:01:00 AM 32.0697 -81.2015 14° North  Level FlightAware Approximate
Wed 02:02:00 AM 32.1835 -81.1478 31° Northeast  Level FlightAware Approximate
Wed 02:03:00 AM 32.2897 -81.0723 31° Northeast  Level FlightAware Approximate
Wed 02:04:00 AM 32.3959 -80.9966 31° Northeast  Level FlightAware Approximate
Wed 02:05:00 AM 32.5020 -80.9208 31° Northeast  Level FlightAware Approximate
Wed 02:06:00 AM 32.6081 -80.8447 31° Northeast  Level FlightAware Approximate
Wed 02:07:00 AM 32.7141 -80.7685 31° Northeast  Level FlightAware Approximate
Wed 02:08:00 AM 32.8197 -80.6914 32° Northeast  Level FlightAware Approximate
Wed 02:09:00 AM 32.9253 -80.6141 32° Northeast  Level FlightAware Approximate
Wed 02:10:00 AM 33.0308 -80.5366 32° Northeast  Level FlightAware Approximate
Wed 02:11:00 AM 33.1363 -80.4589 32° Northeast  Level FlightAware Approximate
Wed 02:12:00 AM 33.2417 -80.3810 32° Northeast  Level FlightAware Approximate
Wed 02:13:00 AM 33.3471 -80.3030 32° Northeast  Level FlightAware Approximate
Wed 02:14:00 AM 33.4524 -80.2247 32° Northeast  Level FlightAware Approximate
Wed 02:15:00 AM 33.5577 -80.1463 32° Northeast  Level FlightAware Approximate
Wed 02:16:00 AM 33.6629 -80.0677 32° Northeast  Level FlightAware Approximate
Wed 02:17:00 AM 33.7681 -79.9888 32° Northeast  Level FlightAware Approximate
Wed 02:17:58 AM 34.4125 -79.4989 39° Northeast 480 552 39,000  Level Washington Center
Wed 02:18:00 AM 33.8732 -79.9098 32° Northeast  Level FlightAware Approximate
Wed 02:18:58 AM 34.5392 -79.4544 16° North 480 552 39,000  Level Washington Center
Wed 02:19:00 AM 33.9782 -79.8306 32° Northeast  Level FlightAware Approximate
Wed 02:19:58 AM 34.6683 -79.3975 20° North 485 558 39,000  Level Washington Center
Wed 02:20:00 AM 34.0833 -79.7512 32° Northeast  Level FlightAware Approximate
Wed 02:20:58 AM 34.7800 -79.2989 36° Northeast 480 552 39,000  Level Washington Center
Wed 02:21:00 AM 34.1882 -79.6716 32° Northeast  Level FlightAware Approximate
Wed 02:21:58 AM 34.8894 -79.1975 37° Northeast 486 559 39,000  Level Washington Center
Wed 02:22:00 AM 34.2996 -79.6065 23° Northeast  Level FlightAware Approximate
Wed 02:22:59 AM 35.0031 -79.0986 35° Northeast 497 572 39,000  Level Washington Center
Wed 02:23:00 AM 34.3842 -79.4825 39° Northeast  Level FlightAware Approximate
Wed 02:23:59 AM 35.1144 -78.9994 36° Northeast 497 572 39,000  Level Washington Center
Wed 02:24:58 AM 35.2256 -78.9000 36° Northeast 497 572 39,000  Level Washington Center
Wed 02:25:58 AM 35.3389 -78.8028 35° Northeast 497 572 39,000  Level Washington Center
Wed 02:26:58 AM 35.4522 -78.6953 38° Northeast 507 583 39,000  Level Washington Center
Wed 02:27:59 AM 35.5633 -78.5922 37° Northeast 507 583 39,000  Level Washington Center
Wed 02:28:58 AM 35.6764 -78.4994 34° Northeast 515 593 39,000  Level Washington Center
Wed 02:30:01 AM 35.7831 -78.3956 38° Northeast 509 586 39,000  Level Washington Center
Wed 02:30:58 AM 35.8983 -78.2919 36° Northeast 503 579 39,000  Level Washington Center
Wed 02:31:58 AM 36.0111 -78.1881 37° Northeast 503 579 39,000  Level Washington Center
Wed 02:32:58 AM 36.1239 -78.0811 37° Northeast 503 579 39,000  Level Washington Center
Wed 02:33:59 AM 36.2389 -77.9742 37° Northeast 509 586 39,000  Level Washington Center
Wed 02:34:58 AM 36.3556 -77.8692 36° Northeast 509 586 39,000  Level Washington Center
Wed 02:36:01 AM 36.4744 -77.7539 38° Northeast 502 578 39,000  Level Washington Center
Wed 02:37:00 AM 36.5892 -77.6458 37° Northeast 497 572 39,000  Level Washington Center
Wed 02:37:59 AM 36.7036 -77.5375 37° Northeast 507 583 39,000  Level Washington Center
Wed 02:38:58 AM 36.8181 -77.4314 37° Northeast 507 583 39,000  Level Washington Center
Wed 02:40:01 AM 36.9344 -77.3197 37° Northeast 512 589 39,000  Level Washington Center
Wed 02:40:58 AM 37.0464 -77.2106 38° Northeast 512 589 39,000  Level Washington Center
Wed 02:41:58 AM 37.1500 -77.1111 37° Northeast 512 589 39,000  Level Washington Center
Wed 02:42:58 AM 37.2767 -76.9908 37° Northeast 518 596 39,000  Level Washington Center
Wed 02:44:00 AM 37.3925 -76.8781 38° Northeast 518 596 39,000  Level Washington Center
Wed 02:44:58 AM 37.5147 -76.7594 38° Northeast 536 617 39,000  Level Washington Center
Wed 02:45:58 AM 37.6283 -76.6486 38° Northeast 531 611 39,000  Level Washington Center
Wed 02:46:58 AM 37.7442 -76.5344 38° Northeast 526 605 39,000  Level Washington Center
Wed 02:48:00 AM 37.8594 -76.4231 37° Northeast 531 611 39,000  Level Washington Center
Wed 02:48:58 AM 37.9750 -76.3108 37° Northeast 531 611 39,000  Level Washington Center
Wed 02:49:58 AM 38.0903 -76.1986 37° Northeast 531 611 39,000  Level Washington Center
Wed 02:50:59 AM 38.2075 -76.0806 38° Northeast 525 604 39,000  Level Washington Center
Wed 02:51:58 AM 38.3206 -75.9650 39° Northeast 525 604 39,000  Level Washington Center
Wed 02:52:58 AM 38.4378 -75.8489 38° Northeast 525 604 39,000  Level Washington Center
Wed 02:54:00 AM 38.5422 -75.7483 37° Northeast 525 604 39,000  Level Washington Center
Wed 02:55:00 AM 38.6569 -75.6289 39° Northeast 525 604 39,000 -50 Level Washington Center
Wed 02:55:59 AM 38.7736 -75.5172 37° Northeast 525 604 38,900 -915 Descending Washington Center
Wed 02:56:58 AM 38.8903 -75.3969 39° Northeast 525 604 37,200 -1,800 Descending Washington Center
Wed 02:57:59 AM 39.0044 -75.2792 39° Northeast 525 604 35,300 -1,950 Descending Washington Center
Wed 02:58:58 AM 39.1147 -75.1636 39° Northeast 520 598 33,300 -1,967 Descending Washington Center
Wed 03:00:01 AM 39.2247 -75.0531 38° Northeast 520 598 31,300 -1,975 Descending Washington Center
Wed 03:01:36 AM 39.4153 -74.8581 38° Northeast 541 623 28,100 -2,089 Descending New York Center
Wed 03:02:39 AM 39.5364 -74.7306 39° Northeast 522 601 25,800 -2,000 Descending New York Center
Wed 03:03:36 AM 39.6294 -74.6281 40° Northeast 500 575 24,100 -1,119 Descending New York Center
Wed 03:04:37 AM 39.7158 -74.4653 55° Northeast 488 562 23,600 -1,450 Descending New York Center
Wed 03:05:36 AM 39.7892 -74.3261 56° Northeast 483 556 21,200 -2,281 Descending New York Center
Wed 03:06:38 AM 39.8489 -74.2047 57° Northeast 455 524 19,000 -2,410 Descending New York Center
Wed 03:07:38 AM 39.9219 -74.0622 56° Northeast 435 501 16,300 -2,017 Descending New York Center
Wed 03:08:37 AM 39.9814 -73.9403 58° Northeast 409 471 15,000 -712 Descending New York Center
Wed 03:09:36 AM 40.0750 -73.8742 28° Northeast 374 430 14,900 -796 Descending New York Center
Wed 03:10:15 AM 40.1500 -73.8333 23° Northeast 387 445 13,700 -1,879 Descending New York TRACON
Wed 03:11:15 AM 40.2333 -73.8000 17° North 368 423 11,800 -1,800 Descending New York TRACON
Wed 03:12:15 AM 40.3333 -73.7667 14° North 355 409 10,100 -900 Descending New York TRACON
Wed 03:13:15 AM 40.4333 -73.7167 21° North 331 381 10,000 -50 Descending New York TRACON
Wed 03:14:15 AM 40.5167 -73.6833 17° North 344 396 10,000 -100 Level New York TRACON
Wed 03:15:15 AM 40.6000 -73.6500 17° North 301 346 9,800 -1,182 Descending New York TRACON
Wed 03:16:27 AM 40.6833 -73.6167 17° North 268 308 7,400 -1,952 Descending New York TRACON
Wed 03:17:21 AM 40.7500 -73.6000 11° North 269 310 5,700 -2,000 Descending New York TRACON
Wed 03:18:27 AM 40.8333 -73.6167 351° North 252 290 3,400 2,832 Descending New York TRACON
Wed 03:20:38 AM 40.9603 -73.6369 353° North 236 272 15,000 3,625 Climbing New York Center
Wed 03:21:39 AM 41.0225 -73.6481 352° North 236 272 15,000  Level New York Center
Wed 03:22:37 AM 41.0847 -73.6561 354° North 236 272 15,000  Level New York Center
Wed 03:24:00 AM 41.0667 -73.7000 353° North  Level FlightAware Approximate
Wed 03:31:00 AM 41.0669 -73.7076 353° North  Level Estimated
Wed 03:32:00 AM 41.0667 -73.7000 353° North  Level FlightAware Approximate
Wed 03:33:00 AM 41.0669 -73.7076 353° North  Level Estimated
Wed 03:34:00 AM 41.0667 -73.7000 353° North  Level FlightAware Approximate
Wed 03:35:00 AM 41.0669 -73.7076 353° North  Level Estimated
Wed 03:36:00 AM 41.0667 -73.7000 353° North  Level FlightAware Approximate

Login

Don't have an account? Register now (free) for customized features, flight alerts, and more!